Latest Weather Observations for Williamson

IDQ60801

Issued at 1:32 pm EST Saturday 2 July 2016 (issued every 30 minutes, with the page automatically refreshed every 10 minutes)

About weather observations | Map of weather stations | Latest weather observations for QLD | Other Formats
Station Details ID: 033195 Name: WILLIAMSON Lat: -22.47 Lon: 150.18 Height: 27.6 m
Data from the previous 72 hours. | See also: Recent months at Williamson
Date/Time
EST
Temp
°C
App
Temp
°C
Dew
Point
°C
Rel
Hum
%
Delta-T
°C
Wind Press
QNH
hPa
Press
MSL
hPa
Rain since
9am
mm
Dir  Spd
km/h
Gust
km/h
Spd
kts
Gust
kts
02/01:30pm 21.6 17.9 4.2 32 8.4 SSE 13 19 7 10 1021.5 1021.5 0.0
02/01:00pm 21.4 17.6 5.7 36 7.8 SSW 15 20 8 11 1021.9 1021.9 0.0
02/12:30pm 20.8 16.6 5.6 37 7.5 S 17 28 9 15 1022.3 1022.3 0.0
02/12:00pm 20.9 16.8 6.4 39 7.3 S 17 28 9 15 1022.7 1022.7 0.0
02/11:30am 19.9 15.1 5.5 39 7.1 S 20 32 11 17 1023.1 1023.1 0.0
02/11:00am 19.2 14.1 6.0 42 6.5 SSW 22 32 12 17 1023.4 1023.4 0.0
02/10:30am 18.2 12.8 6.4 46 5.8 S 24 37 13 20 1023.5 1023.5 0.0
02/10:00am 17.9 12.8 6.1 46 5.8 S 22 33 12 18 1023.8 1023.8 0.0
02/09:30am 16.9 11.2 6.7 51 5.0 SSW 26 35 14 19 1023.7 1023.7 0.0
02/09:00am 16.4 11.0 6.5 52 4.8 S 24 39 13 21 1023.7 1023.7 0.0
02/08:30am 15.6 10.7 6.9 56 4.3 S 22 32 12 17 1023.6 1023.6 0.0
02/08:00am 14.8 10.2 6.6 58 4.0 S 20 28 11 15 1023.2 1023.2 0.0
02/07:30am 13.8 10.5 6.4 61 3.6 S 13 20 7 11 1023.4 1023.4 0.0
02/07:00am 12.2 9.6 6.3 67 2.8 S 9 13 5 7 1022.8 1022.8 0.0
02/06:30am 11.8 9.2 6.3 69 2.6 S 9 13 5 7 1022.7 1022.7 0.0
02/06:00am 9.5 7.9 8.1 91 0.7 S 6 11 3 6 1022.3 1022.3 0.0
02/05:30am 8.7 8.3 8.1 96 0.3 CALM 0 7 0 4 1022.2 1022.2 0.0
02/05:00am 9.2 8.0 8.0 92 0.6 SSW 4 9 2 5 1021.7 1021.7 0.0
02/04:30am 9.2 8.5 8.6 96 0.3 SSE 2 6 1 3 1021.6 1021.6 0.0
02/04:00am 9.6 9.3 8.7 94 0.4 CALM 0 4 0 2 1021.4 1021.4 0.0
02/03:30am 10.4 9.5 9.3 93 0.5 S 4 7 2 4 1021.4 1021.4 0.0
02/03:00am 10.8 10.3 9.4 91 0.7 SSE 2 6 1 3 1021.4 1021.4 0.0
02/02:30am 11.8 10.7 9.9 88 1.0 S 6 7 3 4 1021.4 1021.4 0.0
02/02:00am 12.0 10.8 10.2 89 0.9 S 7 9 4 5 1021.4 1021.4 0.0
02/01:30am 12.4 11.9 10.8 90 0.8 S 4 7 2 4 1021.4 1021.4 0.0
02/01:00am 13.3 12.5 11.7 90 0.9 S 7 7 4 4 1021.6 1021.6 0.0
02/12:30am 14.1 13.6 12.0 87 1.1 S 6 6 3 3 1021.8 1021.8 0.0
02/12:00am 14.7 14.4 13.4 92 0.7 S 7 9 4 5 1021.8 1021.8 0.0
 
Date/Time
EST
Temp
°C
App
Temp
°C
Dew
Point
°C
Rel
Hum
%
Delta-T
°C
Wind Press
QNH
hPa
Press
MSL
hPa
Rain since
9am
mm
Dir  Spd
km/h
Gust
km/h
Spd
kts
Gust
kts
01/11:30pm 15.0 16.4 14.4 96 0.3 CALM 0 0 0 0 1021.9 1021.9 0.0
01/11:00pm 15.2 15.9 14.4 95 0.5 S 4 7 2 4 1021.8 1021.8 0.0
01/10:30pm 15.8 17.4 15.0 95 0.5 CALM 0 0 0 0 1021.7 1021.7 0.0
01/10:00pm 16.0 17.6 15.0 94 0.6 CALM 0 0 0 0 1021.7 1021.7 0.0
01/09:30pm 16.5 18.4 15.7 95 0.5 CALM 0 0 0 0 1021.7 1021.7 0.0
01/09:00pm 16.7 18.6 15.7 94 0.6 CALM 0 0 0 0 1021.7 1021.7 0.0
01/08:30pm 16.8 18.6 15.5 92 0.8 CALM 0 0 0 0 1021.6 1021.6 0.0
01/08:00pm 16.9 18.4 15.6 92 0.8 WNW 2 6 1 3 1021.4 1021.4 0.0
01/07:30pm 17.4 18.1 15.6 89 1.1 SSE 6 7 3 4 1021.2 1021.2 0.0
01/07:00pm 17.6 19.1 15.6 88 1.2 SSE 2 7 1 4 1020.7 1020.7 0.0
01/06:30pm 17.7 19.4 15.1 85 1.5 CALM 0 0 0 0 1019.8 1019.8 0.0
01/06:00pm 18.9 20.5 14.8 77 2.4 CALM 0 6 0 3 1019.3 1019.2 0.0
01/05:30pm 20.6 21.1 14.9 70 3.4 ENE 6 9 3 5 1018.9 1018.8 0.0
01/05:00pm 22.5 23.5 13.3 56 5.3 CALM 0 0 0 0 1018.6 1018.5 0.0
01/04:30pm 24.0 24.7 12.3 48 6.7 CALM 0 0 0 0 1018.5 1018.4 0.0
01/04:00pm 23.9 24.2 12.2 48 6.7 SSE 2 6 1 3 1018.3 1018.2 0.0
01/03:30pm 23.7 22.8 12.7 50 6.3 S 9 15 5 8 1018.3 1018.2 0.0
01/03:00pm 23.4 22.6 13.0 52 6.0 SSE 9 13 5 7 1018.2 1018.1 0.0
01/02:30pm 22.8 23.3 14.9 61 4.7 NW 6 9 3 5 1018.2 1018.1 0.0
01/02:00pm 23.3 22.6 13.2 53 5.8 WSW 9 13 5 7 1018.5 1018.4 0.0
01/01:30pm 23.3 22.3 12.3 50 6.3 SSW 9 13 5 7 1018.7 1018.6 0.0
01/01:00pm 23.6 22.1 13.2 52 6.0 S 13 17 7 9 1019.0 1018.9 0.0
01/12:30pm 24.4 23.8 14.5 54 5.9 SW 11 20 6 11 1019.4 1019.3 0.0
01/12:00pm 23.7 23.0 14.4 56 5.5 W 11 17 6 9 1019.8 1019.8 0.0
01/11:30am 24.0 23.3 14.4 55 5.7 W 11 20 6 11 1020.3 1020.3 0.0
01/11:00am 23.6 25.0 15.4 60 4.9 SW 2 9 1 5 1020.7 1020.7 0.0
01/10:30am 22.3 23.4 15.6 66 4.0 SSE 4 9 2 5 1021.1 1021.1 0.0
01/10:00am 21.0 21.3 16.0 73 3.0 SSW 9 11 5 6 1021.4 1021.4 0.0
01/09:30am 19.4 19.8 16.2 82 1.9 SSW 9 13 5 7 1021.5 1021.4 0.0
01/09:00am 17.9 18.3 16.4 91 0.9 SSW 9 11 5 6 1021.7 1021.6 0.0
01/08:30am 15.9 17.4 15.6 98 0.2 SW 2 9 1 5 1021.6 1021.5 0.0
01/08:00am 14.8 16.2 14.5 98 0.2 CALM 0 2 0 1 1021.5 1021.4 0.0
01/07:30am 13.6 13.5 13.3 98 0.2 SSE 6 7 3 4 1021.2 1021.1 0.0
01/07:00am 12.3 11.8 12.0 98 0.2 SSE 6 7 3 4 1020.9 1020.8 0.0
01/06:30am 11.1 11.4 10.8 98 0.2 CALM 0 0 0 0 1020.4 1020.3 0.0
01/06:00am 11.4 11.8 11.1 98 0.2 CALM 0 0 0 0 1020.0 1019.9 0.0
01/05:30am 11.6 12.0 11.3 98 0.2 CALM 0 0 0 0 1019.6 1019.5 0.0
01/05:00am 11.7 12.1 11.4 98 0.2 CALM 0 0 0 0 1019.3 1019.2 0.0
01/04:30am 11.7 12.1 11.4 98 0.2 CALM 0 4 0 2 1019.2 1019.1 0.0
01/04:00am 11.9 12.4 11.6 98 0.2 CALM 0 7 0 4 1019.4 1019.3 0.0
01/03:30am 11.8 12.3 11.5 98 0.2 CALM 0 0 0 0 1019.4 1019.3 0.0
01/03:00am 11.8 12.3 11.5 98 0.2 CALM 0 0 0 0 1019.4 1019.3 0.0
01/02:30am 11.8 12.3 11.5 98 0.2 CALM 0 0 0 0 1019.5 1019.4 0.0
01/02:00am 12.1 12.3 11.8 98 0.2 SSE 2 6 1 3 1019.6 1019.5 0.0
01/01:30am 12.0 12.2 11.7 98 0.2 S 2 6 1 3 1019.9 1019.8 0.0
01/01:00am 12.2 12.4 11.9 98 0.2 S 2 9 1 5 1020.0 1019.9 0.0
01/12:30am 12.6 13.3 12.3 98 0.2 CALM 0 0 0 0 1020.1 1020.0 0.0
01/12:00am 12.8 13.6 12.5 98 0.2 CALM 0 0 0 0 1020.2 1020.1 0.0
 
Date/Time
EST
Temp
°C
App
Temp
°C
Dew
Point
°C
Rel
Hum
%
Delta-T
°C
Wind Press
QNH
hPa
Press
MSL
hPa
Rain since
9am
mm
Dir  Spd
km/h
Gust
km/h
Spd
kts
Gust
kts
30/11:30pm 13.3 14.2 13.0 98 0.2 CALM 0 0 0 0 1020.6 1020.5 0.0
30/11:00pm 13.7 14.7 13.2 97 0.3 CALM 0 2 0 1 1020.9 1020.8 0.0
30/10:30pm 14.2 15.4 13.7 97 0.3 CALM 0 0 0 0 1021.1 1021.0 0.0
30/10:00pm 14.5 15.7 13.9 96 0.3 CALM 0 0 0 0 1021.1 1021.0 0.0
30/09:30pm 15.4 16.8 14.4 94 0.6 CALM 0 0 0 0 1021.1 1021.0 0.0
30/09:00pm 15.8 17.3 14.7 93 0.6 CALM 0 0 0 0 1021.2 1021.1 0.0
30/08:30pm 16.5 17.9 14.5 88 1.1 CALM 0 6 0 3 1021.2 1021.1 0.0
30/08:00pm 18.1 19.3 15.0 82 1.8 ENE 2 7 1 4 1021.2 1021.1 0.0
30/07:30pm 18.9 19.4 15.6 81 2.0 E 7 11 4 6 1020.9 1020.8 0.0
30/07:00pm 19.4 19.5 15.5 78 2.3 ENE 9 11 5 6 1020.7 1020.6 0.0
30/06:30pm 19.8 19.9 15.4 76 2.6 ENE 9 13 5 7 1020.3 1020.2 0.0
30/06:00pm 20.2 20.2 15.2 73 2.9 ENE 9 15 5 8 1020.1 1020.0 0.0
30/05:30pm 20.7 20.8 14.4 67 3.7 NE 7 11 4 6 1019.9 1019.8 0.0
30/05:00pm 21.8 21.7 13.4 59 4.8 NNE 6 9 3 5 1019.7 1019.6 0.0
30/04:30pm 22.9 21.6 12.5 52 5.9 N 11 17 6 9 1019.4 1019.3 0.0
30/04:00pm 23.9 22.8 13.2 51 6.2 NNE 11 19 6 10 1019.1 1019.0 0.0
30/03:30pm 23.7 22.5 12.7 50 6.3 NNE 11 17 6 9 1019.1 1019.0 0.0
30/03:00pm 23.6 22.0 11.6 47 6.7 ENE 11 17 6 9 1019.1 1019.0 0.0
30/02:30pm 23.1 22.4 13.3 54 5.7 ENE 9 13 5 7 1019.4 1019.3 0.0
30/02:00pm 23.9 23.2 13.2 51 6.2 ENE 9 15 5 8 1019.4 1019.3 0.0
30/01:30pm 22.8 22.8 13.6 56 5.3 E 6 11 3 6 1019.6 1019.5 0.0
30/01:00pm 23.0 23.0 14.3 58 5.1 NNE 7 17 4 9 1020.1 1020.0 0.0
30/12:30pm 22.9 23.0 14.5 59 5.0 ESE 7 11 4 6 1020.7 1020.6 0.0
30/12:00pm 22.4 22.1 14.5 61 4.6 SE 9 15 5 8 1021.2 1021.1 0.0
30/11:30am 21.2 20.6 14.6 66 3.9 S 11 17 6 9 1021.6 1021.5 0.0
30/11:00am 20.4 19.6 14.1 67 3.6 SSE 11 19 6 10 1022.0 1021.9 0.0
30/10:30am 20.0 19.7 14.4 70 3.3 S 9 13 5 7 1022.4 1022.3 0.0
30/10:00am 18.9 18.1 14.0 73 2.8 SSE 11 17 6 9 1022.5 1022.4 0.0
30/09:30am 17.5 16.4 13.2 76 2.4 S 11 15 6 8 1022.7 1022.6 0.0
30/09:00am 15.9 15.0 12.6 81 1.8 S 9 15 5 8 1022.8 1022.7 0.0
30/08:30am 14.6 13.2 12.1 85 1.4 S 11 15 6 8 1022.7 1022.6 0.0
30/08:00am 12.9 11.8 12.0 94 0.5 S 9 13 5 7 1022.6 1022.5 0.0
30/07:30am 10.7 9.5 10.4 98 0.2 S 7 9 4 5 1022.5 1022.4 0.0
30/07:00am 8.5 8.1 8.2 98 0.1 CALM 0 7 0 4 1022.2 1022.1 0.0
30/06:30am 8.2 7.7 7.9 98 0.1 CALM 0 6 0 3 1022.0 1021.9 0.0
30/06:00am 8.3 7.8 8.0 98 0.1 CALM 0 0 0 0 1021.9 1021.8 0.0
30/05:30am 8.4 7.6 8.1 98 0.1 SSE 2 7 1 4 1021.7 1021.6 0.0
30/05:00am 8.6 7.5 8.3 98 0.1 SSE 4 7 2 4 1021.5 1021.4 0.0
30/04:30am 8.1 7.6 7.8 98 0.1 CALM 0 0 0 0 1021.6 1021.5 0.0
30/04:00am 8.2 7.7 7.9 98 0.1 CALM 0 0 0 0 1021.6 1021.5 0.0
30/03:30am 8.2 7.7 7.9 98 0.1 CALM 0 0 0 0 1021.6 1021.5 0.0
30/03:00am 8.1 7.6 7.8 98 0.1 CALM 0 0 0 0 1021.8 1021.7 0.0
30/02:30am 7.9 7.3 7.6 98 0.1 CALM 0 0 0 0 1022.3 1022.2 0.0
30/02:00am 8.1 7.6 7.8 98 0.1 CALM 0 0 0 0 1022.5 1022.4 0.0
30/01:30am 8.3 7.8 8.0 98 0.1 CALM 0 0 0 0 1023.0 1022.9 0.0
30/01:00am 8.5 7.7 8.2 98 0.1 SSE 2 6 1 3 1023.2 1023.1 0.0
30/12:30am 8.6 7.8 8.2 97 0.2 SE 2 7 1 4 1023.4 1023.3 0.0
30/12:00am 9.0 8.7 8.6 97 0.2 CALM 0 0 0 0 1023.5 1023.4 0.0
 
Date/Time
EST
Temp
°C
App
Temp
°C
Dew
Point
°C
Rel
Hum
%
Delta-T
°C
Wind Press
QNH
hPa
Press
MSL
hPa
Rain since
9am
mm
Dir  Spd
km/h
Gust
km/h
Spd
kts
Gust
kts
29/11:30pm 9.2 8.9 8.7 97 0.2 CALM 0 0 0 0 1024.0 1024.0 0.0
29/11:00pm 9.2 8.9 8.6 96 0.3 CALM 0 0 0 0 1024.2 1024.2 0.0
29/10:30pm 9.4 9.1 8.8 96 0.3 CALM 0 0 0 0 1024.2 1024.2 0.0
29/10:00pm 9.6 9.3 8.7 94 0.4 CALM 0 0 0 0 1024.5 1024.5 0.0
29/09:30pm 9.9 9.6 8.8 93 0.5 CALM 0 0 0 0 1024.5 1024.5 0.0
29/09:00pm 10.4 10.2 9.0 91 0.7 CALM 0 4 0 2 1024.5 1024.5 0.0
29/08:30pm 10.9 10.0 9.2 89 0.8 S 4 7 2 4 1024.4 1024.4 0.0
29/08:00pm 10.9 10.2 8.7 86 1.1 SSE 2 7 1 4 1024.3 1024.3 0.0
29/07:30pm 11.5 11.3 8.9 84 1.3 CALM 0 0 0 0 1024.2 1024.2 0.0
29/07:00pm 12.5 10.6 9.0 79 1.7 S 9 9 5 5 1024.0 1024.0 0.0
29/06:30pm 13.8 13.6 9.0 73 2.4 CALM 0 2 0 1 1023.5 1023.4 0.0
29/06:00pm 15.4 13.5 6.9 57 4.2 ESE 6 7 3 4 1023.2 1023.1 0.0
29/05:30pm 17.5 16.2 7.8 53 4.9 SE 4 7 2 4 1023.1 1023.0 0.0
29/05:00pm 19.7 17.6 6.8 43 6.5 SSE 7 15 4 8 1022.8 1022.7 0.0
29/04:30pm 20.4 17.2 5.2 37 7.5 SSE 11 20 6 11 1022.5 1022.4 0.0
29/04:00pm 20.9 17.4 5.3 36 7.7 SSE 13 22 7 12 1022.4 1022.3 0.0
29/03:30pm 21.3 18.6 7.5 41 7.1 SE 11 17 6 9 1022.4 1022.3 0.0
29/03:00pm 21.2 19.3 7.4 41 7.1 SSE 7 13 4 7 1022.1 1022.0 0.0
29/02:30pm 21.2 18.4 7.1 40 7.2 SE 11 20 6 11 1022.1 1022.0 0.0
29/02:00pm 21.4 18.5 8.3 43 6.8 SSE 13 20 7 11 1022.1 1022.0 0.0

Other Formats:

Comma delimited format used in spreadsheet applications
http://www.bom.gov.au/fwo/IDQ60801/IDQ60801.95370.axf

JavaScript Object Notation format (JSON) in row-major order
http://www.bom.gov.au/fwo/IDQ60801/IDQ60801.95370.json